Campo Alegre, Brazil
Current Conditions -  °F | °C
As of 10:00 AM on Thursday 30 Oct 2014 (Local Time) from SBJV Reporting Station
Clear Clear  
Wind Chill: 79°   Ceiling: Unl
Heat Index: 81°   Visibility: 6mi
Dew Point: 70°   Wind: 1mph
Humidity: 74%   Direction: 350°N
Pressure: 29.77"   Gusts: NA
Location:  26.19°S, 49.27°W
Report Text: SBJV 301200Z 35001KT CAVOK 26/21 Q1008
Loading
Personal Weather Stations






























Interactive Weather Map
Tropical Storm Tracking
New forecast layout! Learn more

10-Day Weather Forecast

Advertisements
Track Severe Weather on mobile